sensor_id;sensor_type;location;lat;lon;timestamp;P1;durP1;ratioP1;P2;durP2;ratioP2
22480;SDS011;11407;56.964;-2.212;2023-07-28T00:01:06;10.23;;;5.53;;
22480;SDS011;11407;56.964;-2.212;2023-07-28T00:03:31;6.97;;;4.90;;
22480;SDS011;11407;56.964;-2.212;2023-07-28T00:05:56;9.30;;;5.83;;
22480;SDS011;11407;56.964;-2.212;2023-07-28T00:08:22;9.03;;;5.60;;
22480;SDS011;11407;56.964;-2.212;2023-07-28T00:10:47;8.37;;;5.30;;
22480;SDS011;11407;56.964;-2.212;2023-07-28T00:13:12;7.83;;;5.43;;
22480;SDS011;11407;56.964;-2.212;2023-07-28T00:15:37;12.23;;;7.33;;
22480;SDS011;11407;56.964;-2.212;2023-07-28T00:18:03;8.77;;;6.10;;
22480;SDS011;11407;56.964;-2.212;2023-07-28T00:20:28;10.57;;;6.17;;
22480;SDS011;11407;56.964;-2.212;2023-07-28T00:22:53;8.83;;;5.50;;
22480;SDS011;11407;56.964;-2.212;2023-07-28T00:25:19;8.73;;;5.50;;
22480;SDS011;11407;56.964;-2.212;2023-07-28T00:27:44;8.13;;;5.27;;
22480;SDS011;11407;56.964;-2.212;2023-07-28T00:30:10;7.97;;;5.03;;
22480;SDS011;11407;56.964;-2.212;2023-07-28T00:32:35;7.70;;;5.10;;
22480;SDS011;11407;56.964;-2.212;2023-07-28T00:35:01;8.10;;;4.83;;
22480;SDS011;11407;56.964;-2.212;2023-07-28T00:37:26;9.20;;;5.43;;
22480;SDS011;11407;56.964;-2.212;2023-07-28T00:39:51;7.17;;;4.80;;
22480;SDS011;11407;56.964;-2.212;2023-07-28T00:42:16;10.20;;;5.50;;
22480;SDS011;11407;56.964;-2.212;2023-07-28T00:44:41;12.03;;;5.63;;
22480;SDS011;11407;56.964;-2.212;2023-07-28T00:47:07;13.60;;;6.53;;
22480;SDS011;11407;56.964;-2.212;2023-07-28T00:49:32;11.93;;;6.13;;
22480;SDS011;11407;56.964;-2.212;2023-07-28T00:51:57;12.33;;;5.67;;
22480;SDS011;11407;56.964;-2.212;2023-07-28T00:54:23;16.13;;;6.10;;
22480;SDS011;11407;56.964;-2.212;2023-07-28T00:56:48;10.47;;;5.63;;
22480;SDS011;11407;56.964;-2.212;2023-07-28T00:59:14;11.10;;;5.50;;
22480;SDS011;11407;56.964;-2.212;2023-07-28T01:01:39;11.93;;;5.80;;
22480;SDS011;11407;56.964;-2.212;2023-07-28T01:04:05;10.57;;;5.70;;
22480;SDS011;11407;56.964;-2.212;2023-07-28T01:06:35;10.77;;;5.60;;
22480;SDS011;11407;56.964;-2.212;2023-07-28T01:09:04;10.00;;;5.33;;
22480;SDS011;11407;56.964;-2.212;2023-07-28T01:11:30;12.33;;;5.23;;
22480;SDS011;11407;56.964;-2.212;2023-07-28T01:13:56;12.23;;;6.10;;
22480;SDS011;11407;56.964;-2.212;2023-07-28T01:16:21;10.97;;;6.23;;
22480;SDS011;11407;56.964;-2.212;2023-07-28T01:18:46;11.33;;;5.87;;
22480;SDS011;11407;56.964;-2.212;2023-07-28T01:21:22;9.23;;;5.43;;
22480;SDS011;11407;56.964;-2.212;2023-07-28T01:28:56;9.77;;;5.30;;
22480;SDS011;11407;56.964;-2.212;2023-07-28T01:31:22;10.07;;;5.70;;
22480;SDS011;11407;56.964;-2.212;2023-07-28T01:33:47;7.97;;;5.20;;
22480;SDS011;11407;56.964;-2.212;2023-07-28T01:36:12;14.63;;;6.20;;
22480;SDS011;11407;56.964;-2.212;2023-07-28T01:38:38;13.63;;;7.00;;
22480;SDS011;11407;56.964;-2.212;2023-07-28T01:41:03;18.20;;;7.07;;
22480;SDS011;11407;56.964;-2.212;2023-07-28T01:43:28;21.87;;;7.40;;
22480;SDS011;11407;56.964;-2.212;2023-07-28T01:45:53;19.07;;;7.40;;
22480;SDS011;11407;56.964;-2.212;2023-07-28T01:48:19;16.47;;;7.17;;
22480;SDS011;11407;56.964;-2.212;2023-07-28T01:50:44;14.30;;;7.17;;
22480;SDS011;11407;56.964;-2.212;2023-07-28T01:53:09;13.70;;;6.67;;
22480;SDS011;11407;56.964;-2.212;2023-07-28T01:55:34;12.67;;;6.10;;
22480;SDS011;11407;56.964;-2.212;2023-07-28T01:58:00;16.43;;;6.70;;
22480;SDS011;11407;56.964;-2.212;2023-07-28T02:00:26;13.63;;;6.37;;
22480;SDS011;11407;56.964;-2.212;2023-07-28T02:02:52;13.23;;;5.90;;
22480;SDS011;11407;56.964;-2.212;2023-07-28T02:05:17;13.83;;;6.57;;
22480;SDS011;11407;56.964;-2.212;2023-07-28T02:07:43;11.97;;;5.73;;
22480;SDS011;11407;56.964;-2.212;2023-07-28T02:10:08;13.33;;;6.20;;
22480;SDS011;11407;56.964;-2.212;2023-07-28T02:12:35;14.57;;;5.90;;
22480;SDS011;11407;56.964;-2.212;2023-07-28T02:15:00;15.43;;;6.37;;
22480;SDS011;11407;56.964;-2.212;2023-07-28T02:17:25;10.60;;;5.80;;
22480;SDS011;11407;56.964;-2.212;2023-07-28T02:19:51;15.13;;;6.17;;
22480;SDS011;11407;56.964;-2.212;2023-07-28T02:22:16;9.03;;;5.10;;
22480;SDS011;11407;56.964;-2.212;2023-07-28T02:24:41;10.43;;;5.33;;
22480;SDS011;11407;56.964;-2.212;2023-07-28T02:27:06;10.40;;;5.90;;
22480;SDS011;11407;56.964;-2.212;2023-07-28T02:29:31;8.00;;;5.20;;
22480;SDS011;11407;56.964;-2.212;2023-07-28T02:31:57;13.63;;;5.57;;
22480;SDS011;11407;56.964;-2.212;2023-07-28T02:34:22;17.97;;;6.20;;
22480;SDS011;11407;56.964;-2.212;2023-07-28T02:36:47;15.60;;;6.60;;
22480;SDS011;11407;56.964;-2.212;2023-07-28T02:39:13;15.77;;;6.23;;
22480;SDS011;11407;56.964;-2.212;2023-07-28T02:41:38;14.83;;;5.97;;
22480;SDS011;11407;56.964;-2.212;2023-07-28T02:44:03;15.73;;;7.03;;
22480;SDS011;11407;56.964;-2.212;2023-07-28T02:46:28;17.40;;;6.80;;
22480;SDS011;11407;56.964;-2.212;2023-07-28T02:48:54;16.63;;;6.50;;
22480;SDS011;11407;56.964;-2.212;2023-07-28T02:51:19;14.17;;;5.90;;
22480;SDS011;11407;56.964;-2.212;2023-07-28T02:53:44;12.60;;;5.80;;
22480;SDS011;11407;56.964;-2.212;2023-07-28T02:56:09;14.30;;;5.80;;
22480;SDS011;11407;56.964;-2.212;2023-07-28T02:58:35;11.83;;;6.40;;
22480;SDS011;11407;56.964;-2.212;2023-07-28T03:01:00;11.50;;;5.27;;
22480;SDS011;11407;56.964;-2.212;2023-07-28T03:03:25;10.37;;;5.27;;
22480;SDS011;11407;56.964;-2.212;2023-07-28T03:05:51;8.90;;;5.23;;
22480;SDS011;11407;56.964;-2.212;2023-07-28T03:08:17;8.53;;;5.17;;
22480;SDS011;11407;56.964;-2.212;2023-07-28T03:10:42;10.70;;;4.90;;
22480;SDS011;11407;56.964;-2.212;2023-07-28T03:13:08;12.20;;;5.60;;
22480;SDS011;11407;56.964;-2.212;2023-07-28T03:15:33;11.70;;;5.57;;
22480;SDS011;11407;56.964;-2.212;2023-07-28T03:17:58;12.17;;;5.87;;
22480;SDS011;11407;56.964;-2.212;2023-07-28T03:20:23;10.90;;;6.43;;
22480;SDS011;11407;56.964;-2.212;2023-07-28T03:22:49;11.03;;;5.77;;
22480;SDS011;11407;56.964;-2.212;2023-07-28T03:25:14;9.03;;;5.60;;
22480;SDS011;11407;56.964;-2.212;2023-07-28T03:27:40;8.90;;;5.83;;
22480;SDS011;11407;56.964;-2.212;2023-07-28T03:30:05;13.97;;;6.73;;
22480;SDS011;11407;56.964;-2.212;2023-07-28T03:32:35;16.77;;;7.37;;
22480;SDS011;11407;56.964;-2.212;2023-07-28T03:35:01;20.90;;;7.20;;
22480;SDS011;11407;56.964;-2.212;2023-07-28T03:37:26;18.60;;;7.37;;
22480;SDS011;11407;56.964;-2.212;2023-07-28T03:39:51;17.00;;;7.40;;
22480;SDS011;11407;56.964;-2.212;2023-07-28T03:42:16;17.77;;;7.40;;
22480;SDS011;11407;56.964;-2.212;2023-07-28T03:44:42;19.33;;;6.90;;
22480;SDS011;11407;56.964;-2.212;2023-07-28T03:47:07;15.93;;;6.40;;
22480;SDS011;11407;56.964;-2.212;2023-07-28T03:49:32;17.97;;;7.53;;
22480;SDS011;11407;56.964;-2.212;2023-07-28T03:51:58;16.17;;;6.97;;
22480;SDS011;11407;56.964;-2.212;2023-07-28T03:54:23;17.40;;;7.20;;
22480;SDS011;11407;56.964;-2.212;2023-07-28T03:56:48;16.67;;;7.23;;
22480;SDS011;11407;56.964;-2.212;2023-07-28T03:59:14;16.73;;;7.03;;
22480;SDS011;11407;56.964;-2.212;2023-07-28T04:01:39;15.80;;;6.67;;
22480;SDS011;11407;56.964;-2.212;2023-07-28T04:04:05;20.00;;;7.53;;
22480;SDS011;11407;56.964;-2.212;2023-07-28T04:06:43;16.90;;;7.43;;
22480;SDS011;11407;56.964;-2.212;2023-07-28T04:09:08;11.97;;;6.63;;
22480;SDS011;11407;56.964;-2.212;2023-07-28T04:11:33;14.67;;;7.03;;
22480;SDS011;11407;56.964;-2.212;2023-07-28T04:13:59;17.33;;;7.10;;
22480;SDS011;11407;56.964;-2.212;2023-07-28T04:16:24;16.70;;;7.37;;
22480;SDS011;11407;56.964;-2.212;2023-07-28T04:18:49;17.30;;;6.57;;
22480;SDS011;11407;56.964;-2.212;2023-07-28T04:21:14;18.07;;;7.27;;
22480;SDS011;11407;56.964;-2.212;2023-07-28T04:23:40;18.93;;;7.40;;
22480;SDS011;11407;56.964;-2.212;2023-07-28T04:26:06;14.90;;;6.63;;
22480;SDS011;11407;56.964;-2.212;2023-07-28T04:28:31;16.50;;;7.80;;
22480;SDS011;11407;56.964;-2.212;2023-07-28T04:30:56;13.73;;;6.43;;
22480;SDS011;11407;56.964;-2.212;2023-07-28T04:33:21;12.67;;;6.30;;
22480;SDS011;11407;56.964;-2.212;2023-07-28T04:35:47;12.63;;;6.00;;
22480;SDS011;11407;56.964;-2.212;2023-07-28T04:38:12;11.67;;;6.13;;
22480;SDS011;11407;56.964;-2.212;2023-07-28T04:40:37;12.97;;;6.60;;
22480;SDS011;11407;56.964;-2.212;2023-07-28T04:43:02;12.77;;;6.37;;
22480;SDS011;11407;56.964;-2.212;2023-07-28T04:45:28;12.80;;;5.97;;
22480;SDS011;11407;56.964;-2.212;2023-07-28T04:47:53;12.60;;;5.87;;
22480;SDS011;11407;56.964;-2.212;2023-07-28T04:50:18;11.70;;;5.63;;
22480;SDS011;11407;56.964;-2.212;2023-07-28T04:52:43;12.27;;;6.00;;
22480;SDS011;11407;56.964;-2.212;2023-07-28T04:55:09;11.60;;;5.70;;
22480;SDS011;11407;56.964;-2.212;2023-07-28T04:57:34;11.87;;;5.83;;
22480;SDS011;11407;56.964;-2.212;2023-07-28T04:59:59;9.60;;;5.20;;
22480;SDS011;11407;56.964;-2.212;2023-07-28T05:02:24;10.30;;;5.83;;
22480;SDS011;11407;56.964;-2.212;2023-07-28T05:04:50;10.07;;;5.30;;
22480;SDS011;11407;56.964;-2.212;2023-07-28T05:07:15;9.77;;;5.53;;
22480;SDS011;11407;56.964;-2.212;2023-07-28T05:09:40;10.53;;;5.33;;
22480;SDS011;11407;56.964;-2.212;2023-07-28T05:12:05;10.53;;;5.70;;
22480;SDS011;11407;56.964;-2.212;2023-07-28T05:14:31;10.70;;;5.50;;
22480;SDS011;11407;56.964;-2.212;2023-07-28T05:16:56;11.60;;;5.37;;
22480;SDS011;11407;56.964;-2.212;2023-07-28T05:19:21;10.43;;;5.13;;
22480;SDS011;11407;56.964;-2.212;2023-07-28T05:21:47;11.23;;;5.63;;
22480;SDS011;11407;56.964;-2.212;2023-07-28T05:24:12;15.43;;;6.70;;
22480;SDS011;11407;56.964;-2.212;2023-07-28T05:26:37;15.87;;;7.33;;
22480;SDS011;11407;56.964;-2.212;2023-07-28T05:29:03;18.63;;;7.83;;
22480;SDS011;11407;56.964;-2.212;2023-07-28T05:31:28;23.37;;;9.53;;
22480;SDS011;11407;56.964;-2.212;2023-07-28T05:33:53;16.20;;;7.60;;
22480;SDS011;11407;56.964;-2.212;2023-07-28T05:36:18;16.30;;;7.83;;
22480;SDS011;11407;56.964;-2.212;2023-07-28T05:38:44;15.73;;;8.27;;
22480;SDS011;11407;56.964;-2.212;2023-07-28T05:41:09;17.07;;;7.73;;
22480;SDS011;11407;56.964;-2.212;2023-07-28T05:43:34;16.03;;;7.60;;
22480;SDS011;11407;56.964;-2.212;2023-07-28T05:46:00;13.80;;;7.67;;
22480;SDS011;11407;56.964;-2.212;2023-07-28T05:48:25;15.87;;;7.20;;
22480;SDS011;11407;56.964;-2.212;2023-07-28T05:50:50;13.07;;;7.40;;
22480;SDS011;11407;56.964;-2.212;2023-07-28T05:53:20;14.67;;;6.93;;
22480;SDS011;11407;56.964;-2.212;2023-07-28T05:55:46;15.50;;;6.70;;
22480;SDS011;11407;56.964;-2.212;2023-07-28T05:58:11;15.23;;;7.47;;
22480;SDS011;11407;56.964;-2.212;2023-07-28T06:00:38;12.10;;;6.43;;
22480;SDS011;11407;56.964;-2.212;2023-07-28T06:03:04;12.33;;;6.63;;
22480;SDS011;11407;56.964;-2.212;2023-07-28T06:05:29;10.97;;;5.90;;
22480;SDS011;11407;56.964;-2.212;2023-07-28T06:07:54;11.83;;;5.73;;
22480;SDS011;11407;56.964;-2.212;2023-07-28T06:10:20;12.90;;;5.50;;
22480;SDS011;11407;56.964;-2.212;2023-07-28T06:12:45;10.47;;;5.87;;
22480;SDS011;11407;56.964;-2.212;2023-07-28T06:15:10;10.13;;;5.80;;
22480;SDS011;11407;56.964;-2.212;2023-07-28T06:17:35;8.60;;;5.27;;
22480;SDS011;11407;56.964;-2.212;2023-07-28T06:20:01;6.67;;;4.37;;
22480;SDS011;11407;56.964;-2.212;2023-07-28T06:22:26;8.03;;;4.43;;
22480;SDS011;11407;56.964;-2.212;2023-07-28T06:24:51;6.47;;;4.00;;
22480;SDS011;11407;56.964;-2.212;2023-07-28T06:27:16;6.00;;;4.00;;
22480;SDS011;11407;56.964;-2.212;2023-07-28T06:29:41;6.60;;;4.20;;
22480;SDS011;11407;56.964;-2.212;2023-07-28T06:32:07;6.83;;;4.40;;
22480;SDS011;11407;56.964;-2.212;2023-07-28T06:34:32;7.90;;;4.13;;
22480;SDS011;11407;56.964;-2.212;2023-07-28T06:36:57;12.80;;;6.10;;
22480;SDS011;11407;56.964;-2.212;2023-07-28T06:39:23;11.37;;;6.10;;
22480;SDS011;11407;56.964;-2.212;2023-07-28T06:41:49;17.20;;;7.07;;
22480;SDS011;11407;56.964;-2.212;2023-07-28T06:44:14;12.57;;;6.00;;
22480;SDS011;11407;56.964;-2.212;2023-07-28T06:46:39;11.83;;;5.87;;
22480;SDS011;11407;56.964;-2.212;2023-07-28T06:49:05;13.33;;;6.13;;
22480;SDS011;11407;56.964;-2.212;2023-07-28T06:51:30;11.17;;;5.73;;
22480;SDS011;11407;56.964;-2.212;2023-07-28T06:53:55;12.80;;;6.07;;
22480;SDS011;11407;56.964;-2.212;2023-07-28T06:56:21;9.63;;;6.00;;
22480;SDS011;11407;56.964;-2.212;2023-07-28T06:58:46;10.33;;;5.20;;
22480;SDS011;11407;56.964;-2.212;2023-07-28T07:01:12;7.63;;;4.83;;
22480;SDS011;11407;56.964;-2.212;2023-07-28T07:03:37;9.33;;;5.70;;
22480;SDS011;11407;56.964;-2.212;2023-07-28T07:06:03;13.73;;;7.13;;
22480;SDS011;11407;56.964;-2.212;2023-07-28T07:08:29;16.87;;;7.70;;
22480;SDS011;11407;56.964;-2.212;2023-07-28T07:10:54;15.10;;;7.53;;
22480;SDS011;11407;56.964;-2.212;2023-07-28T07:13:20;12.80;;;7.20;;
22480;SDS011;11407;56.964;-2.212;2023-07-28T07:15:45;11.70;;;7.30;;
22480;SDS011;11407;56.964;-2.212;2023-07-28T07:18:10;14.27;;;7.53;;
22480;SDS011;11407;56.964;-2.212;2023-07-28T07:20:36;10.63;;;6.73;;
22480;SDS011;11407;56.964;-2.212;2023-07-28T07:23:02;10.63;;;7.03;;
22480;SDS011;11407;56.964;-2.212;2023-07-28T07:25:27;11.03;;;7.17;;
22480;SDS011;11407;56.964;-2.212;2023-07-28T07:27:52;12.43;;;6.60;;
22480;SDS011;11407;56.964;-2.212;2023-07-28T07:30:17;9.73;;;5.97;;
22480;SDS011;11407;56.964;-2.212;2023-07-28T07:32:43;12.47;;;7.03;;
22480;SDS011;11407;56.964;-2.212;2023-07-28T07:35:08;14.60;;;7.83;;
22480;SDS011;11407;56.964;-2.212;2023-07-28T07:37:33;12.90;;;6.70;;
22480;SDS011;11407;56.964;-2.212;2023-07-28T07:39:59;8.27;;;6.23;;
22480;SDS011;11407;56.964;-2.212;2023-07-28T07:42:26;7.57;;;5.77;;
22480;SDS011;11407;56.964;-2.212;2023-07-28T07:44:51;14.67;;;7.03;;
22480;SDS011;11407;56.964;-2.212;2023-07-28T07:47:16;13.73;;;5.70;;
22480;SDS011;11407;56.964;-2.212;2023-07-28T07:49:42;9.00;;;5.87;;
22480;SDS011;11407;56.964;-2.212;2023-07-28T07:52:07;7.10;;;5.70;;
22480;SDS011;11407;56.964;-2.212;2023-07-28T07:54:34;11.13;;;5.60;;
22480;SDS011;11407;56.964;-2.212;2023-07-28T07:56:59;12.03;;;5.63;;
22480;SDS011;11407;56.964;-2.212;2023-07-28T07:59:25;8.37;;;6.03;;
22480;SDS011;11407;56.964;-2.212;2023-07-28T08:01:53;7.73;;;6.13;;
22480;SDS011;11407;56.964;-2.212;2023-07-28T08:04:18;10.23;;;6.27;;
22480;SDS011;11407;56.964;-2.212;2023-07-28T08:06:43;7.47;;;5.80;;
22480;SDS011;11407;56.964;-2.212;2023-07-28T08:09:08;6.27;;;4.80;;
22480;SDS011;11407;56.964;-2.212;2023-07-28T08:11:34;6.10;;;4.90;;
22480;SDS011;11407;56.964;-2.212;2023-07-28T08:14:00;5.97;;;3.77;;
22480;SDS011;11407;56.964;-2.212;2023-07-28T08:16:25;7.73;;;4.37;;
22480;SDS011;11407;56.964;-2.212;2023-07-28T08:18:50;5.50;;;4.57;;
22480;SDS011;11407;56.964;-2.212;2023-07-28T08:21:16;7.00;;;4.47;;
22480;SDS011;11407;56.964;-2.212;2023-07-28T08:23:41;8.07;;;5.10;;
22480;SDS011;11407;56.964;-2.212;2023-07-28T08:26:06;8.47;;;4.60;;
22480;SDS011;11407;56.964;-2.212;2023-07-28T08:28:31;7.13;;;4.20;;
22480;SDS011;11407;56.964;-2.212;2023-07-28T08:30:57;6.93;;;3.73;;
22480;SDS011;11407;56.964;-2.212;2023-07-28T08:33:24;8.20;;;3.90;;
22480;SDS011;11407;56.964;-2.212;2023-07-28T08:35:49;5.37;;;3.70;;
22480;SDS011;11407;56.964;-2.212;2023-07-28T08:38:14;5.73;;;3.43;;
22480;SDS011;11407;56.964;-2.212;2023-07-28T08:40:40;4.40;;;3.17;;
22480;SDS011;11407;56.964;-2.212;2023-07-28T08:43:05;4.30;;;2.80;;
22480;SDS011;11407;56.964;-2.212;2023-07-28T08:45:31;6.03;;;2.97;;
22480;SDS011;11407;56.964;-2.212;2023-07-28T08:47:56;2.93;;;2.40;;
22480;SDS011;11407;56.964;-2.212;2023-07-28T08:50:21;5.60;;;2.73;;
22480;SDS011;11407;56.964;-2.212;2023-07-28T08:52:47;3.27;;;2.80;;
22480;SDS011;11407;56.964;-2.212;2023-07-28T08:55:15;3.47;;;2.00;;
22480;SDS011;11407;56.964;-2.212;2023-07-28T08:57:40;2.00;;;1.73;;
22480;SDS011;11407;56.964;-2.212;2023-07-28T09:00:06;4.70;;;1.80;;
22480;SDS011;11407;56.964;-2.212;2023-07-28T09:02:32;2.53;;;2.10;;
22480;SDS011;11407;56.964;-2.212;2023-07-28T09:04:57;6.53;;;3.37;;
22480;SDS011;11407;56.964;-2.212;2023-07-28T09:07:22;3.87;;;2.17;;
22480;SDS011;11407;56.964;-2.212;2023-07-28T09:09:47;3.30;;;2.37;;
22480;SDS011;11407;56.964;-2.212;2023-07-28T09:12:13;3.03;;;1.47;;
22480;SDS011;11407;56.964;-2.212;2023-07-28T09:14:38;1.40;;;1.00;;
22480;SDS011;11407;56.964;-2.212;2023-07-28T09:17:10;2.90;;;1.23;;
22480;SDS011;11407;56.964;-2.212;2023-07-28T09:19:54;1.43;;;1.10;;
22480;SDS011;11407;56.964;-2.212;2023-07-28T09:22:20;1.60;;;1.13;;
22480;SDS011;11407;56.964;-2.212;2023-07-28T09:24:45;4.50;;;1.00;;
22480;SDS011;11407;56.964;-2.212;2023-07-28T09:27:19;1.63;;;0.97;;
22480;SDS011;11407;56.964;-2.212;2023-07-28T09:29:47;1.10;;;1.00;;
22480;SDS011;11407;56.964;-2.212;2023-07-28T09:32:12;1.97;;;0.90;;
22480;SDS011;11407;56.964;-2.212;2023-07-28T09:34:38;1.20;;;1.10;;
22480;SDS011;11407;56.964;-2.212;2023-07-28T09:37:05;1.33;;;1.20;;
22480;SDS011;11407;56.964;-2.212;2023-07-28T09:39:30;1.10;;;1.00;;
22480;SDS011;11407;56.964;-2.212;2023-07-28T09:41:56;0.90;;;0.90;;
22480;SDS011;11407;56.964;-2.212;2023-07-28T09:44:24;2.20;;;1.10;;
22480;SDS011;11407;56.964;-2.212;2023-07-28T09:49:21;2.57;;;0.93;;
22480;SDS011;11407;56.964;-2.212;2023-07-28T09:51:48;1.73;;;0.90;;
22480;SDS011;11407;56.964;-2.212;2023-07-28T09:54:18;2.13;;;1.10;;
22480;SDS011;11407;56.964;-2.212;2023-07-28T09:56:50;3.13;;;1.47;;
22480;SDS011;11407;56.964;-2.212;2023-07-28T09:59:17;2.90;;;1.40;;
22480;SDS011;11407;56.964;-2.212;2023-07-28T10:01:43;5.07;;;1.40;;
22480;SDS011;11407;56.964;-2.212;2023-07-28T10:04:10;5.13;;;1.60;;
22480;SDS011;11407;56.964;-2.212;2023-07-28T10:06:35;3.50;;;1.80;;
22480;SDS011;11407;56.964;-2.212;2023-07-28T10:09:02;3.00;;;1.70;;
22480;SDS011;11407;56.964;-2.212;2023-07-28T10:11:28;2.27;;;1.43;;
22480;SDS011;11407;56.964;-2.212;2023-07-28T10:13:54;6.97;;;1.50;;
22480;SDS011;11407;56.964;-2.212;2023-07-28T10:16:19;1.30;;;1.20;;
22480;SDS011;11407;56.964;-2.212;2023-07-28T10:18:52;1.30;;;1.20;;
22480;SDS011;11407;56.964;-2.212;2023-07-28T10:21:18;1.10;;;1.00;;
22480;SDS011;11407;56.964;-2.212;2023-07-28T10:23:43;1.33;;;1.10;;
22480;SDS011;11407;56.964;-2.212;2023-07-28T10:26:09;2.23;;;1.20;;
22480;SDS011;11407;56.964;-2.212;2023-07-28T10:28:35;1.10;;;1.00;;
22480;SDS011;11407;56.964;-2.212;2023-07-28T10:31:04;1.67;;;1.00;;
22480;SDS011;11407;56.964;-2.212;2023-07-28T10:33:34;1.43;;;1.33;;
22480;SDS011;11407;56.964;-2.212;2023-07-28T10:36:10;1.97;;;1.00;;
22480;SDS011;11407;56.964;-2.212;2023-07-28T10:38:36;1.60;;;1.50;;
22480;SDS011;11407;56.964;-2.212;2023-07-28T10:41:20;2.40;;;2.20;;
22480;SDS011;11407;56.964;-2.212;2023-07-28T10:43:45;1.87;;;1.07;;
22480;SDS011;11407;56.964;-2.212;2023-07-28T10:46:13;1.20;;;1.10;;
22480;SDS011;11407;56.964;-2.212;2023-07-28T10:48:43;3.87;;;1.00;;
22480;SDS011;11407;56.964;-2.212;2023-07-28T10:51:09;1.27;;;1.00;;
22480;SDS011;11407;56.964;-2.212;2023-07-28T10:53:34;1.20;;;1.10;;
22480;SDS011;11407;56.964;-2.212;2023-07-28T10:56:00;0.90;;;0.90;;
22480;SDS011;11407;56.964;-2.212;2023-07-28T10:58:25;1.53;;;0.90;;
22480;SDS011;11407;56.964;-2.212;2023-07-28T11:00:51;1.40;;;0.80;;
22480;SDS011;11407;56.964;-2.212;2023-07-28T11:03:17;1.20;;;1.03;;
22480;SDS011;11407;56.964;-2.212;2023-07-28T11:05:42;1.33;;;0.90;;
22480;SDS011;11407;56.964;-2.212;2023-07-28T11:08:08;1.20;;;1.10;;
22480;SDS011;11407;56.964;-2.212;2023-07-28T11:10:33;1.00;;;0.90;;
22480;SDS011;11407;56.964;-2.212;2023-07-28T11:13:03;1.27;;;1.17;;
22480;SDS011;11407;56.964;-2.212;2023-07-28T11:15:28;1.27;;;1.03;;
22480;SDS011;11407;56.964;-2.212;2023-07-28T11:17:55;1.20;;;1.10;;
22480;SDS011;11407;56.964;-2.212;2023-07-28T11:22:46;1.60;;;1.03;;
22480;SDS011;11407;56.964;-2.212;2023-07-28T11:25:12;1.67;;;1.20;;
22480;SDS011;11407;56.964;-2.212;2023-07-28T11:27:38;1.73;;;1.30;;
22480;SDS011;11407;56.964;-2.212;2023-07-28T11:30:04;3.30;;;1.20;;
22480;SDS011;11407;56.964;-2.212;2023-07-28T11:32:30;1.97;;;1.30;;
22480;SDS011;11407;56.964;-2.212;2023-07-28T11:35:02;3.20;;;1.30;;
22480;SDS011;11407;56.964;-2.212;2023-07-28T11:37:28;1.60;;;1.20;;
22480;SDS011;11407;56.964;-2.212;2023-07-28T11:39:55;1.30;;;1.20;;
22480;SDS011;11407;56.964;-2.212;2023-07-28T11:42:20;1.80;;;1.60;;
22480;SDS011;11407;56.964;-2.212;2023-07-28T11:44:46;1.73;;;1.30;;
22480;SDS011;11407;56.964;-2.212;2023-07-28T11:47:16;1.50;;;1.40;;
22480;SDS011;11407;56.964;-2.212;2023-07-28T11:49:45;2.33;;;1.40;;
22480;SDS011;11407;56.964;-2.212;2023-07-28T11:52:11;1.70;;;1.50;;
22480;SDS011;11407;56.964;-2.212;2023-07-28T11:54:36;1.50;;;1.40;;
22480;SDS011;11407;56.964;-2.212;2023-07-28T11:57:01;1.90;;;1.70;;
22480;SDS011;11407;56.964;-2.212;2023-07-28T11:59:27;1.70;;;1.60;;
22480;SDS011;11407;56.964;-2.212;2023-07-28T12:02:00;1.87;;;1.77;;
22480;SDS011;11407;56.964;-2.212;2023-07-28T12:04:26;2.00;;;1.80;;
22480;SDS011;11407;56.964;-2.212;2023-07-28T12:09:46;3.10;;;1.90;;
22480;SDS011;11407;56.964;-2.212;2023-07-28T12:12:19;3.50;;;2.50;;
22480;SDS011;11407;56.964;-2.212;2023-07-28T12:14:44;2.97;;;2.33;;
22480;SDS011;11407;56.964;-2.212;2023-07-28T12:17:20;2.40;;;2.03;;
22480;SDS011;11407;56.964;-2.212;2023-07-28T12:19:58;4.40;;;2.30;;
22480;SDS011;11407;56.964;-2.212;2023-07-28T12:22:25;2.70;;;2.50;;
22480;SDS011;11407;56.964;-2.212;2023-07-28T12:24:50;2.60;;;2.03;;
22480;SDS011;11407;56.964;-2.212;2023-07-28T12:27:15;3.23;;;2.07;;
22480;SDS011;11407;56.964;-2.212;2023-07-28T12:29:41;2.00;;;1.90;;
22480;SDS011;11407;56.964;-2.212;2023-07-28T12:32:06;2.40;;;2.10;;
22480;SDS011;11407;56.964;-2.212;2023-07-28T12:34:32;4.43;;;2.10;;
22480;SDS011;11407;56.964;-2.212;2023-07-28T12:36:58;2.40;;;2.20;;
22480;SDS011;11407;56.964;-2.212;2023-07-28T12:39:23;5.03;;;2.17;;
22480;SDS011;11407;56.964;-2.212;2023-07-28T12:41:48;2.90;;;2.20;;
22480;SDS011;11407;56.964;-2.212;2023-07-28T12:44:14;3.50;;;1.93;;
22480;SDS011;11407;56.964;-2.212;2023-07-28T12:46:39;3.10;;;2.10;;
22480;SDS011;11407;56.964;-2.212;2023-07-28T12:49:04;3.77;;;2.40;;
22480;SDS011;11407;56.964;-2.212;2023-07-28T12:51:32;3.43;;;2.43;;
22480;SDS011;11407;56.964;-2.212;2023-07-28T12:53:57;2.60;;;2.20;;
22480;SDS011;11407;56.964;-2.212;2023-07-28T12:56:22;2.67;;;2.47;;
22480;SDS011;11407;56.964;-2.212;2023-07-28T12:58:47;3.93;;;2.57;;
22480;SDS011;11407;56.964;-2.212;2023-07-28T13:01:12;3.23;;;2.50;;
22480;SDS011;11407;56.964;-2.212;2023-07-28T13:03:38;2.67;;;2.47;;
22480;SDS011;11407;56.964;-2.212;2023-07-28T13:06:03;3.07;;;2.63;;
22480;SDS011;11407;56.964;-2.212;2023-07-28T13:08:29;5.10;;;2.80;;
22480;SDS011;11407;56.964;-2.212;2023-07-28T13:10:54;4.73;;;3.00;;
22480;SDS011;11407;56.964;-2.212;2023-07-28T13:13:19;2.90;;;2.43;;
22480;SDS011;11407;56.964;-2.212;2023-07-28T13:15:44;4.00;;;2.53;;
22480;SDS011;11407;56.964;-2.212;2023-07-28T13:18:10;3.00;;;2.70;;
22480;SDS011;11407;56.964;-2.212;2023-07-28T13:20:35;2.40;;;2.20;;
22480;SDS011;11407;56.964;-2.212;2023-07-28T13:23:01;3.80;;;2.63;;
22480;SDS011;11407;56.964;-2.212;2023-07-28T13:25:27;3.50;;;2.70;;
22480;SDS011;11407;56.964;-2.212;2023-07-28T13:27:52;3.27;;;2.80;;
22480;SDS011;11407;56.964;-2.212;2023-07-28T13:30:17;2.70;;;2.50;;
22480;SDS011;11407;56.964;-2.212;2023-07-28T13:32:42;3.43;;;2.90;;
22480;SDS011;11407;56.964;-2.212;2023-07-28T13:35:08;4.77;;;3.00;;
22480;SDS011;11407;56.964;-2.212;2023-07-28T13:37:33;3.17;;;2.80;;
22480;SDS011;11407;56.964;-2.212;2023-07-28T13:39:59;5.80;;;3.20;;
22480;SDS011;11407;56.964;-2.212;2023-07-28T13:42:24;3.47;;;3.17;;
22480;SDS011;11407;56.964;-2.212;2023-07-28T13:44:49;7.07;;;3.80;;
22480;SDS011;11407;56.964;-2.212;2023-07-28T13:47:14;5.43;;;2.80;;
22480;SDS011;11407;56.964;-2.212;2023-07-28T13:49:40;3.07;;;2.50;;
22480;SDS011;11407;56.964;-2.212;2023-07-28T13:52:05;3.57;;;2.60;;
22480;SDS011;11407;56.964;-2.212;2023-07-28T13:54:31;2.70;;;2.50;;
22480;SDS011;11407;56.964;-2.212;2023-07-28T13:56:56;2.80;;;2.50;;
22480;SDS011;11407;56.964;-2.212;2023-07-28T13:59:21;2.70;;;2.50;;
22480;SDS011;11407;56.964;-2.212;2023-07-28T14:01:47;4.17;;;2.53;;
22480;SDS011;11407;56.964;-2.212;2023-07-28T14:04:12;3.57;;;2.40;;
22480;SDS011;11407;56.964;-2.212;2023-07-28T14:06:39;4.63;;;2.70;;
22480;SDS011;11407;56.964;-2.212;2023-07-28T14:09:04;3.57;;;2.37;;
22480;SDS011;11407;56.964;-2.212;2023-07-28T14:11:29;4.67;;;2.30;;
22480;SDS011;11407;56.964;-2.212;2023-07-28T14:13:55;4.83;;;2.30;;
22480;SDS011;11407;56.964;-2.212;2023-07-28T14:16:20;2.50;;;2.00;;
22480;SDS011;11407;56.964;-2.212;2023-07-28T14:18:45;2.20;;;2.00;;
22480;SDS011;11407;56.964;-2.212;2023-07-28T14:21:13;2.23;;;2.00;;
22480;SDS011;11407;56.964;-2.212;2023-07-28T14:23:38;3.10;;;2.10;;
22480;SDS011;11407;56.964;-2.212;2023-07-28T14:26:03;2.23;;;1.97;;
22480;SDS011;11407;56.964;-2.212;2023-07-28T14:28:28;2.33;;;2.03;;
22480;SDS011;11407;56.964;-2.212;2023-07-28T14:30:54;2.10;;;1.90;;
22480;SDS011;11407;56.964;-2.212;2023-07-28T14:33:19;2.30;;;1.90;;